Private Wetterstation Wechselburg
Wetterdaten: Donnerstag, 10.07.2014
Datum Zeit Temp. +2m Bodentemp. Temp.+5cm Temp. Wind Windchill X Diff Temp. Feuchte +2m Feuchte +5cm Sonnenschein Luftdruck Regen Wind Richtung Richtung Sonnenschein UV Taupunkt Windchill Windben
10.07.2014 00:00 14,8 C 24,4 C 14,9 C 14,7 C 14,5 C 0,0 C 81 % 88 % 0 % 1004,6 hPa 0,0 l/m 0,8 km/h (0 Bft) S-SW 202 0 min 0,0 UV-I 11,6 C 14,5 C 3,2 km/h (1 Bft)
10.07.2014 00:05 14,8 C 24,4 C 14,9 C 14,7 C 14,5 C 0,0 C 82 % 88 % 0 % 1004,6 hPa 0,0 l/m 1,1 km/h (1 Bft) S 180 0 min 0,0 UV-I 11,8 C 14,5 C 2,6 km/h (1 Bft)
10.07.2014 00:10 14,8 C 24,4 C 14,9 C 14,7 C 14,4 C 0,0 C 82 % 88 % 0 % 1004,6 hPa 0,0 l/m 1,0 km/h (0 Bft) S-SW 202 0 min 0,0 UV-I 11,8 C 14,4 C 0,0 km/h (0 Bft)
10.07.2014 00:15 14,8 C 24,4 C 14,9 C 14,7 C 14,4 C 0,0 C 82 % 88 % 0 % 1004,8 hPa 0,0 l/m 0,5 km/h (0 Bft) S-SO 157 0 min 0,0 UV-I 11,8 C 14,4 C 2,6 km/h (1 Bft)
10.07.2014 00:20 14,8 C 24,4 C 14,9 C 14,7 C 14,4 C 0,0 C 82 % 88 % 0 % 1004,8 hPa 0,0 l/m 0,2 km/h (0 Bft) NO 45 0 min 0,0 UV-I 11,8 C 14,4 C 2,9 km/h (1 Bft)
10.07.2014 00:25 14,8 C 24,4 C 14,8 C 14,7 C 14,4 C 0,0 C 82 % 88 % 0 % 1004,8 hPa 0,0 l/m 0,3 km/h (0 Bft) O-NO 67 0 min 0,0 UV-I 11,8 C 14,4 C 0,0 km/h (0 Bft)
10.07.2014 00:30 14,8 C 24,4 C 14,9 C 14,7 C 14,4 C 0,0 C 83 % 88 % 0 % 1004,8 hPa 0,0 l/m 0,3 km/h (0 Bft) SO 135 0 min 0,0 UV-I 11,9 C 14,4 C 0,0 km/h (0 Bft)
10.07.2014 00:35 14,8 C 24,4 C 14,9 C 14,7 C 14,4 C 0,0 C 83 % 88 % 0 % 1005,6 hPa 0,0 l/m 0,2 km/h (0 Bft) SO 135 0 min 0,0 UV-I 11,9 C 14,4 C 0,0 km/h (0 Bft)
10.07.2014 00:40 14,7 C 24,4 C 14,8 C 14,6 C 14,3 C 0,0 C 83 % 88 % 0 % 1005,6 hPa 0,0 l/m 0,0 km/h (0 Bft) N-NO 22 0 min 0,0 UV-I 11,8 C 14,3 C 0,0 km/h (0 Bft)
10.07.2014 00:45 14,7 C 24,4 C 14,7 C 14,6 C 14,3 C 0,0 C 83 % 88 % 0 % 1005,6 hPa 0,0 l/m 0,0 km/h (0 Bft) S-SW 202 0 min 0,0 UV-I 11,8 C 14,3 C 0,0 km/h (0 Bft)
10.07.2014 00:50 14,7 C 24,4 C 14,8 C 14,5 C 14,2 C 0,0 C 83 % 88 % 0 % 1005,6 hPa 0,0 l/m 0,0 km/h (0 Bft) S 180 0 min 0,0 UV-I 11,8 C 14,2 C 0,0 km/h (0 Bft)
10.07.2014 00:55 14,6 C 24,4 C 14,8 C 14,5 C 14,2 C 0,0 C 83 % 88 % 0 % 1006,1 hPa 0,0 l/m 0,0 km/h (0 Bft) S 180 0 min 0,0 UV-I 11,7 C 14,2 C 1,6 km/h (1 Bft)
10.07.2014 01:00 14,7 C 24,4 C 14,7 C 14,5 C 14,1 C 0,0 C 83 % 88 % 0 % 1006,1 hPa 0,0 l/m 0,2 km/h (0 Bft) S 180 0 min 0,0 UV-I 11,8 C 14,1 C 0,0 km/h (0 Bft)
10.07.2014 01:05 14,7 C 24,4 C 14,7 C 14,5 C 14,0 C 0,0 C 84 % 89 % 0 % 1006,1 hPa 0,0 l/m 0,2 km/h (0 Bft) W-SW 247 0 min 0,0 UV-I 12,0 C 14,0 C 0,0 km/h (0 Bft)
10.07.2014 01:10 14,5 C 24,4 C 14,7 C 14,3 C 14,0 C 0,0 C 84 % 89 % 0 % 1006,1 hPa 0,0 l/m 0,0 km/h (0 Bft) SW 225 0 min 0,0 UV-I 11,8 C 14,0 C 0,0 km/h (0 Bft)
10.07.2014 01:15 14,5 C 24,4 C 14,6 C 14,3 C 14,0 C 0,0 C 84 % 89 % 0 % 1005,5 hPa 0,0 l/m 0,0 km/h (0 Bft) SO 135 0 min 0,0 UV-I 11,8 C 14,0 C 0,0 km/h (0 Bft)
10.07.2014 01:20 14,4 C 24,4 C 14,7 C 14,3 C 14,0 C 0,0 C 84 % 89 % 0 % 1005,5 hPa 0,0 l/m 0,0 km/h (0 Bft) S-SW 202 0 min 0,0 UV-I 11,7 C 14,0 C 0,0 km/h (0 Bft)
10.07.2014 01:25 14,4 C 24,4 C 14,7 C 14,3 C 14,0 C 0,0 C 84 % 89 % 0 % 1005,5 hPa 0,0 l/m 0,0 km/h (0 Bft) S-SW 202 0 min 0,0 UV-I 11,7 C 14,0 C 0,0 km/h (0 Bft)
10.07.2014 01:30 14,4 C 24,4 C 14,7 C 14,2 C 13,9 C 0,0 C 84 % 89 % 0 % 1005,5 hPa 0,0 l/m 0,0 km/h (0 Bft) S 180 0 min 0,0 UV-I 11,7 C 13,9 C 0,0 km/h (0 Bft)
10.07.2014 01:35 14,4 C 24,4 C 14,7 C 14,2 C 13,9 C 0,0 C 84 % 89 % 0 % 1005,2 hPa 0,0 l/m 0,0 km/h (0 Bft) S 180 0 min 0,0 UV-I 11,7 C 13,9 C 0,0 km/h (0 Bft)
10.07.2014 01:40 14,3 C 24,4 C 14,7 C 14,2 C 13,9 C 0,0 C 85 % 89 % 0 % 1005,2 hPa 0,0 l/m 0,0 km/h (0 Bft) W-NW 292 0 min 0,0 UV-I 11,8 C 13,9 C 0,0 km/h (0 Bft)
10.07.2014 01:45 14,3 C 24,4 C 14,6 C 14,2 C 13,9 C 0,0 C 85 % 89 % 0 % 1005,2 hPa 0,0 l/m 0,0 km/h (0 Bft) S-SW 202 0 min 0,0 UV-I 11,8 C 13,9 C 0,0 km/h (0 Bft)
10.07.2014 01:50 14,2 C 24,4 C 14,5 C 14,1 C 13,9 C 0,0 C 85 % 89 % 0 % 1005,2 hPa 0,0 l/m 0,0 km/h (0 Bft) SO 135 0 min 0,0 UV-I 11,7 C 13,9 C 0,0 km/h (0 Bft)
10.07.2014 01:55 14,1 C 24,4 C 14,5 C 14,0 C 13,9 C 0,0 C 85 % 89 % 0 % 1005,2 hPa 0,0 l/m 0,0 km/h (0 Bft) O-NO 67 0 min 0,0 UV-I 11,6 C 13,9 C 0,0 km/h (0 Bft)
10.07.2014 02:00 14,1 C 24,4 C 14,5 C 14,0 C 13,9 C 0,0 C 85 % 89 % 0 % 1005,2 hPa 0,0 l/m 0,0 km/h (0 Bft) S-SW 202 0 min 0,0 UV-I 11,6 C 13,9 C 0,0 km/h (0 Bft)
10.07.2014 02:05 14,0 C 24,4 C 14,4 C 14,0 C 13,9 C 0,0 C 85 % 89 % 0 % 1005,2 hPa 0,0 l/m 0,0 km/h (0 Bft) NW 315 0 min 0,0 UV-I 11,5 C 13,9 C 0,0 km/h (0 Bft)
10.07.2014 02:10 14,0 C 24,4 C 14,5 C 14,0 C 13,9 C 0,0 C 85 % 89 % 0 % 1005,2 hPa 0,0 l/m 0,0 km/h (0 Bft) S-SO 157 0 min 0,0 UV-I 11,5 C 13,9 C 0,0 km/h (0 Bft)
10.07.2014 02:15 14,0 C 24,4 C 14,5 C 14,0 C 13,9 C 0,0 C 85 % 89 % 0 % 1004,9 hPa 0,0 l/m 0,0 km/h (0 Bft) SO 135 0 min 0,0 UV-I 11,5 C 13,9 C 0,0 km/h (0 Bft)
10.07.2014 02:20 13,9 C 24,4 C 14,4 C 13,9 C 13,9 C 0,0 C 85 % 89 % 0 % 1004,9 hPa 0,0 l/m 0,0 km/h (0 Bft) N-NO 22 0 min 0,0 UV-I 11,4 C 13,9 C 0,0 km/h (0 Bft)
10.07.2014 02:25 13,8 C 24,4 C 14,4 C 13,9 C 13,9 C 0,1 C 85 % 89 % 0 % 1004,9 hPa 0,0 l/m 0,0 km/h (0 Bft) O-SO 112 0 min 0,0 UV-I 11,3 C 13,9 C 0,0 km/h (0 Bft)
10.07.2014 02:30 13,9 C 24,4 C 14,4 C 13,9 C 13,9 C 0,0 C 85 % 89 % 0 % 1004,9 hPa 0,0 l/m 0,2 km/h (0 Bft) SW 225 0 min 0,0 UV-I 11,4 C 13,9 C 3,5 km/h (1 Bft)
10.07.2014 02:35 13,9 C 24,4 C 14,4 C 13,9 C 13,9 C 0,0 C 85 % 89 % 0 % 1004,9 hPa 0,0 l/m 0,2 km/h (0 Bft) SO 135 0 min 0,0 UV-I 11,4 C 13,9 C 0,0 km/h (0 Bft)
10.07.2014 02:40 13,7 C 24,4 C 14,4 C 13,9 C 13,9 C 0,2 C 85 % 89 % 0 % 1004,9 hPa 0,0 l/m 0,3 km/h (0 Bft) W-SW 247 0 min 0,0 UV-I 11,2 C 13,9 C 3,9 km/h (1 Bft)
10.07.2014 02:45 13,7 C 24,4 C 14,4 C 13,9 C 13,9 C 0,2 C 85 % 89 % 0 % 1004,9 hPa 0,0 l/m 0,3 km/h (0 Bft) W-SW 247 0 min 0,0 UV-I 11,2 C 13,9 C 0,0 km/h (0 Bft)
10.07.2014 02:50 13,7 C 24,4 C 14,4 C 13,8 C 13,8 C 0,1 C 86 % 89 % 0 % 1004,9 hPa 0,0 l/m 0,2 km/h (0 Bft) S 180 0 min 0,0 UV-I 11,4 C 13,8 C 0,0 km/h (0 Bft)
10.07.2014 02:55 13,7 C 24,4 C 14,4 C 13,8 C 13,8 C 0,1 C 86 % 89 % 0 % 1004,9 hPa 0,0 l/m 0,2 km/h (0 Bft) SO 135 0 min 0,0 UV-I 11,4 C 13,8 C 0,0 km/h (0 Bft)
10.07.2014 03:00 13,6 C 24,4 C 14,5 C 13,8 C 13,8 C 0,2 C 86 % 89 % 0 % 1004,9 hPa 0,0 l/m 0,2 km/h (0 Bft) W 270 0 min 0,0 UV-I 11,3 C 13,8 C 0,0 km/h (0 Bft)
10.07.2014 03:05 13,6 C 24,4 C 14,4 C 13,8 C 13,8 C 0,2 C 86 % 89 % 0 % 1004,9 hPa 0,0 l/m 0,2 km/h (0 Bft) O-SO 112 0 min 0,0 UV-I 11,3 C 13,8 C 0,0 km/h (0 Bft)
10.07.2014 03:10 13,7 C 24,4 C 14,5 C 13,8 C 13,8 C 0,1 C 86 % 89 % 0 % 1004,9 hPa 0,0 l/m 0,3 km/h (0 Bft) S-SW 202 0 min 0,0 UV-I 11,4 C 13,8 C 0,0 km/h (0 Bft)
10.07.2014 03:15 13,6 C 24,4 C 14,5 C 13,8 C 13,8 C 0,2 C 86 % 89 % 0 % 1004,6 hPa 0,0 l/m 0,3 km/h (0 Bft) S-SW 202 0 min 0,0 UV-I 11,3 C 13,8 C 0,0 km/h (0 Bft)
10.07.2014 03:20 13,6 C 24,4 C 14,4 C 13,9 C 13,9 C 0,3 C 86 % 89 % 0 % 1004,6 hPa 0,0 l/m 0,8 km/h (0 Bft) S-SW 202 0 min 0,0 UV-I 11,3 C 13,9 C 5,6 km/h (1 Bft)
10.07.2014 03:25 13,6 C 24,4 C 14,4 C 14,0 C 14,0 C 0,4 C 86 % 89 % 0 % 1004,6 hPa 0,0 l/m 1,4 km/h (1 Bft) S 180 0 min 0,0 UV-I 11,3 C 14,0 C 2,7 km/h (1 Bft)
10.07.2014 03:30 13,6 C 24,4 C 14,4 C 14,0 C 14,0 C 0,4 C 86 % 89 % 0 % 1004,6 hPa 0,0 l/m 1,3 km/h (1 Bft) W-SW 247 0 min 0,0 UV-I 11,3 C 14,0 C 0,0 km/h (0 Bft)
10.07.2014 03:35 13,6 C 24,4 C 14,5 C 14,0 C 14,0 C 0,4 C 86 % 89 % 0 % 1004,1 hPa 0,0 l/m 1,3 km/h (1 Bft) SW 225 0 min 0,0 UV-I 11,3 C 14,0 C 1,8 km/h (1 Bft)
10.07.2014 03:40 13,6 C 24,3 C 14,5 C 14,0 C 14,0 C 0,4 C 86 % 89 % 0 % 1004,1 hPa 0,0 l/m 0,8 km/h (0 Bft) W-SW 247 0 min 0,0 UV-I 11,3 C 14,0 C 2,4 km/h (1 Bft)
10.07.2014 03:45 13,6 C 24,3 C 14,4 C 14,0 C 14,0 C 0,4 C 86 % 88 % 0 % 1004,1 hPa 0,0 l/m 0,6 km/h (0 Bft) S-SW 202 0 min 0,0 UV-I 11,3 C 14,0 C 0,0 km/h (0 Bft)
10.07.2014 03:50 13,6 C 24,3 C 14,4 C 13,8 C 13,8 C 0,2 C 86 % 88 % 0 % 1004,1 hPa 0,0 l/m 0,5 km/h (0 Bft) S-SW 202 0 min 0,0 UV-I 11,3 C 13,8 C 2,4 km/h (1 Bft)
10.07.2014 03:55 13,6 C 24,4 C 14,4 C 13,6 C 13,6 C 0,0 C 86 % 88 % 0 % 1005,1 hPa 0,0 l/m 0,3 km/h (0 Bft) S-SW 202 0 min 0,0 UV-I 11,3 C 13,6 C 0,0 km/h (0 Bft)
10.07.2014 04:00 13,6 C 24,4 C 14,3 C 13,5 C 13,4 C 0,0 C 86 % 89 % 0 % 1005,1 hPa 0,0 l/m 0,2 km/h (0 Bft) S 180 0 min 0,0 UV-I 11,3 C 13,4 C 0,0 km/h (0 Bft)
10.07.2014 04:05 13,6 C 24,4 C 14,3 C 13,5 C 13,3 C 0,0 C 86 % 89 % 0 % 1005,1 hPa 0,0 l/m 0,0 km/h (0 Bft) S 180 0 min 0,0 UV-I 11,3 C 13,3 C 0,0 km/h (0 Bft)
10.07.2014 04:10 13,5 C 24,4 C 14,3 C 13,4 C 13,2 C 0,0 C 86 % 89 % 0 % 1005,1 hPa 0,0 l/m 0,2 km/h (0 Bft) O 90 0 min 0,0 UV-I 11,2 C 13,2 C 0,0 km/h (0 Bft)
10.07.2014 04:15 13,5 C 24,4 C 14,1 C 13,4 C 13,2 C 0,0 C 86 % 89 % 0 % 1004,8 hPa 0,0 l/m 0,2 km/h (0 Bft) S-SW 202 0 min 0,0 UV-I 11,2 C 13,2 C 0,0 km/h (0 Bft)
10.07.2014 04:20 13,5 C 24,5 C 14,1 C 13,4 C 13,2 C 0,0 C 86 % 89 % 0 % 1004,8 hPa 0,0 l/m 0,3 km/h (0 Bft) S 180 0 min 0,0 UV-I 11,2 C 13,2 C 0,0 km/h (0 Bft)
10.07.2014 04:25 13,3 C 24,5 C 14,0 C 13,2 C 13,1 C 0,0 C 86 % 89 % 0 % 1004,8 hPa 0,0 l/m 0,3 km/h (0 Bft) S-SW 202 0 min 0,0 UV-I 11,0 C 13,1 C 0,0 km/h (0 Bft)
10.07.2014 04:30 13,3 C 24,5 C 14,1 C 13,2 C 13,1 C 0,0 C 86 % 89 % 0 % 1004,8 hPa 0,0 l/m 0,3 km/h (0 Bft) NW 315 0 min 0,0 UV-I 11,0 C 13,1 C 4,2 km/h (1 Bft)
10.07.2014 04:35 13,2 C 24,5 C 14,0 C 13,2 C 13,1 C 0,0 C 86 % 89 % 0 % 1004,7 hPa 0,0 l/m 0,6 km/h (0 Bft) S-SW 202 0 min 0,0 UV-I 10,9 C 13,1 C 0,0 km/h (0 Bft)
10.07.2014 04:40 13,0 C 24,5 C 14,0 C 13,0 C 13,0 C 0,0 C 86 % 89 % 0 % 1004,7 hPa 0,0 l/m 0,8 km/h (0 Bft) S-SO 157 0 min 0,0 UV-I 10,7 C 13,0 C 0,0 km/h (0 Bft)
10.07.2014 04:45 13,1 C 24,5 C 14,0 C 13,1 C 13,0 C 0,0 C 87 % 89 % 0 % 1004,7 hPa 0,0 l/m 1,1 km/h (1 Bft) SW 225 0 min 0,0 UV-I 11,0 C 13,0 C 3,5 km/h (1 Bft)
10.07.2014 04:50 12,9 C 24,6 C 13,9 C 13,0 C 13,0 C 0,1 C 87 % 89 % 0 % 1004,7 hPa 0,0 l/m 1,6 km/h (1 Bft) W-SW 247 0 min 0,0 UV-I 10,8 C 13,0 C 12,4 km/h (3 Bft)
10.07.2014 04:55 12,8 C 24,6 C 13,9 C 13,0 C 13,0 C 0,2 C 87 % 89 % 0 % 1004,4 hPa 0,0 l/m 1,8 km/h (1 Bft) SW 225 0 min 0,0 UV-I 10,7 C 13,0 C 3,9 km/h (1 Bft)
10.07.2014 05:00 12,8 C 24,6 C 13,9 C 13,0 C 13,0 C 0,2 C 87 % 90 % 0 % 1004,4 hPa 0,0 l/m 1,4 km/h (1 Bft) W-SW 247 0 min 0,0 UV-I 10,7 C 13,0 C 1,9 km/h (1 Bft)
10.07.2014 05:05 12,7 C 24,6 C 13,8 C 13,0 C 13,0 C 0,3 C 87 % 90 % 0 % 1004,4 hPa 0,0 l/m 1,4 km/h (1 Bft) S 180 0 min 0,0 UV-I 10,6 C 13,0 C 2,4 km/h (1 Bft)
10.07.2014 05:10 12,6 C 24,6 C 13,9 C 13,0 C 13,0 C 0,4 C 87 % 90 % 0 % 1004,4 hPa 0,0 l/m 1,3 km/h (1 Bft) W-SW 247 0 min 0,0 UV-I 10,5 C 13,0 C 4,2 km/h (1 Bft)
10.07.2014 05:15 12,6 C 24,6 C 13,8 C 13,0 C 13,0 C 0,4 C 87 % 90 % 0 % 1004,9 hPa 0,0 l/m 1,1 km/h (1 Bft) SW 225 0 min 0,0 UV-I 10,5 C 13,0 C 0,0 km/h (0 Bft)
10.07.2014 05:20 12,7 C 24,6 C 13,7 C 13,0 C 13,0 C 0,3 C 88 % 90 % 8 % 1004,9 hPa 0,7 l/m 0,5 km/h (0 Bft) S-SW 202 5 min 0,0 UV-I 10,8 C 13,0 C 1,8 km/h (1 Bft)
10.07.2014 05:25 12,7 C 24,6 C 13,6 C 13,0 C 13,0 C 0,3 C 88 % 90 % 8 % 1004,9 hPa 0,0 l/m 0,3 km/h (0 Bft) W-SW 247 5 min 0,0 UV-I 10,8 C 13,0 C 1,6 km/h (1 Bft)
10.07.2014 05:30 12,7 C 24,6 C 13,7 C 13,0 C 13,0 C 0,3 C 88 % 91 % 8 % 1004,9 hPa 0,0 l/m 0,2 km/h (0 Bft) W 270 0 min 0,0 UV-I 10,8 C 13,0 C 0,0 km/h (0 Bft)
10.07.2014 05:35 12,7 C 24,6 C 13,6 C 13,0 C 13,0 C 0,3 C 88 % 91 % 8 % 1004,6 hPa 0,0 l/m 0,3 km/h (0 Bft) SW 225 0 min 0,0 UV-I 10,8 C 13,0 C 1,8 km/h (1 Bft)
10.07.2014 05:40 12,6 C 24,6 C 13,6 C 13,0 C 13,0 C 0,4 C 88 % 91 % 11 % 1004,6 hPa 0,0 l/m 0,5 km/h (0 Bft) S 180 0 min 0,0 UV-I 10,7 C 13,0 C 0,0 km/h (0 Bft)
10.07.2014 05:45 12,5 C 24,6 C 13,7 C 13,0 C 13,0 C 0,5 C 88 % 91 % 13 % 1004,6 hPa 0,0 l/m 0,6 km/h (0 Bft) SW 225 0 min 0,0 UV-I 10,6 C 13,0 C 1,8 km/h (1 Bft)
10.07.2014 05:50 12,5 C 24,6 C 13,9 C 13,0 C 13,0 C 0,5 C 88 % 92 % 13 % 1004,6 hPa 0,0 l/m 0,3 km/h (0 Bft) W 270 0 min 0,0 UV-I 10,6 C 13,0 C 0,0 km/h (0 Bft)
10.07.2014 05:55 12,5 C 24,6 C 13,9 C 13,0 C 13,0 C 0,5 C 88 % 92 % 13 % 1004,8 hPa 0,0 l/m 0,3 km/h (0 Bft) W-SW 247 0 min 0,0 UV-I 10,6 C 13,0 C 0,0 km/h (0 Bft)
10.07.2014 06:00 12,5 C 24,6 C 13,8 C 13,0 C 13,0 C 0,5 C 88 % 92 % 13 % 1004,8 hPa 0,0 l/m 0,2 km/h (0 Bft) W 270 0 min 0,0 UV-I 10,6 C 13,0 C 0,0 km/h (0 Bft)
10.07.2014 06:05 12,5 C 24,6 C 13,9 C 13,0 C 13,0 C 0,5 C 88 % 93 % 13 % 1004,8 hPa 0,0 l/m 0,3 km/h (0 Bft) S 180 0 min 0,0 UV-I 10,6 C 13,0 C 0,0 km/h (0 Bft)
10.07.2014 06:10 12,5 C 24,5 C 13,8 C 13,0 C 13,0 C 0,5 C 88 % 93 % 13 % 1004,8 hPa 1,4 l/m 0,2 km/h (0 Bft) W-NW 292 0 min 0,0 UV-I 10,6 C 13,0 C 0,0 km/h (0 Bft)
10.07.2014 06:15 12,5 C 24,5 C 13,9 C 13,1 C 13,1 C 0,6 C 89 % 93 % 16 % 1004,8 hPa 0,0 l/m 0,2 km/h (0 Bft) W-NW 292 0 min 0,0 UV-I 10,7 C 13,1 C 0,0 km/h (0 Bft)
10.07.2014 06:20 12,5 C 24,5 C 13,9 C 13,1 C 13,1 C 0,6 C 89 % 93 % 16 % 1004,8 hPa 0,0 l/m 0,2 km/h (0 Bft) W 270 0 min 0,0 UV-I 10,7 C 13,1 C 0,0 km/h (0 Bft)
10.07.2014 06:25 12,5 C 24,5 C 14,0 C 13,1 C 13,1 C 0,6 C 89 % 93 % 16 % 1004,8 hPa 0,0 l/m 0,2 km/h (0 Bft) S-SO 157 0 min 0,0 UV-I 10,7 C 13,1 C 0,0 km/h (0 Bft)
10.07.2014 06:30 12,5 C 24,5 C 13,9 C 13,1 C 13,1 C 0,6 C 89 % 93 % 16 % 1004,8 hPa 0,7 l/m 0,2 km/h (0 Bft) O 90 0 min 0,0 UV-I 10,7 C 13,1 C 0,0 km/h (0 Bft)
10.07.2014 06:35 12,4 C 24,5 C 13,9 C 13,1 C 13,1 C 0,7 C 89 % 93 % 18 % 1004,9 hPa 0,0 l/m 0,2 km/h (0 Bft) N-NW 337 0 min 0,0 UV-I 10,6 C 13,1 C 0,0 km/h (0 Bft)
10.07.2014 06:40 12,5 C 24,5 C 13,9 C 13,2 C 13,2 C 0,7 C 89 % 94 % 18 % 1004,9 hPa 0,0 l/m 0,2 km/h (0 Bft) O-NO 67 0 min 0,0 UV-I 10,7 C 13,2 C 0,0 km/h (0 Bft)
10.07.2014 06:45 12,5 C 24,5 C 14,0 C 13,2 C 13,2 C 0,7 C 89 % 94 % 18 % 1004,9 hPa 0,0 l/m 0,5 km/h (0 Bft) N-NW 337 0 min 0,0 UV-I 10,7 C 13,2 C 0,0 km/h (0 Bft)
10.07.2014 06:50 12,5 C 24,5 C 14,0 C 13,2 C 13,2 C 0,7 C 89 % 94 % 18 % 1004,9 hPa 0,0 l/m 0,3 km/h (0 Bft) W-SW 247 0 min 0,0 UV-I 10,7 C 13,2 C 0,0 km/h (0 Bft)
10.07.2014 06:55 12,5 C 24,5 C 14,0 C 13,2 C 13,2 C 0,7 C 89 % 94 % 18 % 1005,2 hPa 0,0 l/m 0,3 km/h (0 Bft) S-SO 157 0 min 0,0 UV-I 10,7 C 13,2 C 0,0 km/h (0 Bft)
10.07.2014 07:00 12,5 C 24,5 C 13,9 C 13,2 C 13,2 C 0,7 C 89 % 94 % 18 % 1005,2 hPa 0,7 l/m 0,2 km/h (0 Bft) W-SW 247 0 min 0,0 UV-I 10,7 C 13,2 C 0,0 km/h (0 Bft)
10.07.2014 07:05 12,5 C 24,5 C 13,9 C 13,2 C 13,2 C 0,7 C 89 % 94 % 18 % 1005,2 hPa 0,0 l/m 0,2 km/h (0 Bft) SW 225 0 min 0,0 UV-I 10,7 C 13,2 C 0,0 km/h (0 Bft)
10.07.2014 07:10 12,5 C 24,5 C 13,9 C 13,2 C 13,2 C 0,7 C 89 % 94 % 18 % 1005,2 hPa 0,0 l/m 0,2 km/h (0 Bft) S-SW 202 0 min 0,0 UV-I 10,7 C 13,2 C 2,3 km/h (1 Bft)
10.07.2014 07:15 12,5 C 24,5 C 14,1 C 13,2 C 13,2 C 0,7 C 89 % 94 % 18 % 1004,9 hPa 0,0 l/m 0,2 km/h (0 Bft) N-NW 337 0 min 0,0 UV-I 10,7 C 13,2 C 2,9 km/h (1 Bft)
10.07.2014 07:20 12,5 C 24,5 C 14,1 C 13,2 C 13,2 C 0,7 C 89 % 94 % 18 % 1004,9 hPa 0,7 l/m 0,6 km/h (0 Bft) W-SW 247 0 min 0,0 UV-I 10,7 C 13,2 C 0,0 km/h (0 Bft)
10.07.2014 07:25 12,5 C 24,5 C 14,0 C 13,2 C 13,2 C 0,7 C 90 % 94 % 18 % 1004,9 hPa 0,0 l/m 0,5 km/h (0 Bft) O-NO 67 0 min 0,0 UV-I 10,9 C 13,2 C 0,0 km/h (0 Bft)
10.07.2014 07:30 12,5 C 24,5 C 14,0 C 13,2 C 13,2 C 0,7 C 90 % 94 % 18 % 1004,9 hPa 0,0 l/m 0,5 km/h (0 Bft) S 180 0 min 0,0 UV-I 10,9 C 13,2 C 2,9 km/h (1 Bft)
10.07.2014 07:35 12,5 C 24,5 C 14,1 C 13,2 C 13,2 C 0,7 C 90 % 94 % 18 % 1004,9 hPa 0,0 l/m 1,0 km/h (0 Bft) O-NO 67 0 min 0,0 UV-I 10,9 C 13,2 C 1,8 km/h (1 Bft)
10.07.2014 07:40 12,5 C 24,5 C 13,9 C 13,2 C 13,2 C 0,7 C 90 % 94 % 18 % 1004,9 hPa 0,7 l/m 1,9 km/h (1 Bft) W 270 0 min 0,0 UV-I 10,9 C 13,2 C 3,2 km/h (1 Bft)
10.07.2014 07:45 12,4 C 24,5 C 14,0 C 13,2 C 13,2 C 0,8 C 90 % 94 % 21 % 1004,9 hPa 0,0 l/m 1,8 km/h (1 Bft) S-SW 202 0 min 0,0 UV-I 10,8 C 13,2 C 0,0 km/h (0 Bft)
10.07.2014 07:50 12,4 C 24,5 C 14,0 C 13,2 C 13,2 C 0,8 C 90 % 94 % 21 % 1004,9 hPa 0,0 l/m 1,1 km/h (1 Bft) O-NO 67 0 min 0,0 UV-I 10,8 C 13,2 C 0,0 km/h (0 Bft)
10.07.2014 07:55 12,4 C 24,5 C 14,1 C 13,2 C 13,2 C 0,8 C 90 % 94 % 21 % 1004,8 hPa 0,0 l/m 1,0 km/h (0 Bft) S-SW 202 0 min 0,0 UV-I 10,8 C 13,2 C 2,6 km/h (1 Bft)
10.07.2014 08:00 12,5 C 24,5 C 14,1 C 13,3 C 13,3 C 0,8 C 90 % 94 % 21 % 1004,8 hPa 0,0 l/m 1,6 km/h (1 Bft) O-SO 112 0 min 0,0 UV-I 10,9 C 13,3 C 1,6 km/h (1 Bft)
10.07.2014 08:05 12,5 C 24,5 C 13,9 C 13,3 C 13,3 C 0,8 C 90 % 94 % 21 % 1004,8 hPa 0,7 l/m 1,4 km/h (1 Bft) W-SW 247 0 min 0,0 UV-I 10,9 C 13,3 C 0,0 km/h (0 Bft)
10.07.2014 08:10 12,5 C 24,5 C 14,0 C 13,4 C 13,4 C 0,9 C 90 % 94 % 24 % 1004,8 hPa 0,0 l/m 1,0 km/h (0 Bft) S 180 0 min 0,0 UV-I 10,9 C 13,4 C 2,1 km/h (1 Bft)
10.07.2014 08:15 12,5 C 24,4 C 14,0 C 13,4 C 13,4 C 0,9 C 90 % 94 % 24 % 1005,1 hPa 0,0 l/m 1,3 km/h (1 Bft) NW 315 0 min 0,0 UV-I 10,9 C 13,4 C 3,7 km/h (1 Bft)
10.07.2014 08:20 12,7 C 24,4 C 14,1 C 13,4 C 13,4 C 0,7 C 90 % 94 % 18 % 1005,1 hPa 0,0 l/m 1,8 km/h (1 Bft) SW 225 0 min 0,0 UV-I 11,1 C 13,4 C 2,9 km/h (1 Bft)
10.07.2014 08:25 12,7 C 24,4 C 14,2 C 13,5 C 13,5 C 0,8 C 90 % 94 % 21 % 1005,1 hPa 0,0 l/m 1,9 km/h (1 Bft) S-SW 202 0 min 0,0 UV-I 11,1 C 13,5 C 7,9 km/h (2 Bft)
10.07.2014 08:30 12,6 C 24,4 C 14,3 C 13,6 C 13,6 C 1,0 C 90 % 94 % 26 % 1005,1 hPa 0,0 l/m 1,9 km/h (1 Bft) N-NW 337 0 min 0,0 UV-I 11,0 C 13,6 C 2,1 km/h (1 Bft)
10.07.2014 08:35 12,7 C 24,4 C 14,3 C 13,6 C 13,6 C 0,9 C 90 % 94 % 24 % 1004,8 hPa 0,0 l/m 1,6 km/h (1 Bft) S-SW 202 0 min 0,0 UV-I 11,1 C 13,6 C 3,2 km/h (1 Bft)
10.07.2014 08:40 12,7 C 24,4 C 14,2 C 13,6 C 13,6 C 0,9 C 90 % 94 % 24 % 1004,8 hPa 0,0 l/m 2,3 km/h (1 Bft) W 270 0 min 0,0 UV-I 11,1 C 13,6 C 6,3 km/h (2 Bft)
10.07.2014 08:45 12,7 C 24,4 C 14,3 C 13,6 C 13,6 C 0,9 C 90 % 94 % 24 % 1004,8 hPa 0,0 l/m 2,6 km/h (1 Bft) SW 225 0 min 0,0 UV-I 11,1 C 13,6 C 2,7 km/h (1 Bft)
10.07.2014 08:50 12,8 C 24,4 C 14,2 C 13,6 C 13,6 C 0,8 C 91 % 94 % 21 % 1004,8 hPa 0,0 l/m 2,4 km/h (1 Bft) S 180 0 min 0,0 UV-I 11,4 C 13,6 C 3,7 km/h (1 Bft)
10.07.2014 08:55 12,8 C 24,4 C 14,2 C 13,7 C 13,7 C 0,9 C 91 % 94 % 24 % 1004,8 hPa 0,0 l/m 2,6 km/h (1 Bft) S-SW 202 0 min 0,0 UV-I 11,4 C 13,7 C 4,8 km/h (1 Bft)
10.07.2014 09:00 12,8 C 24,4 C 14,2 C 13,6 C 13,6 C 0,8 C 91 % 94 % 21 % 1004,8 hPa 0,0 l/m 4,0 km/h (1 Bft) W 270 0 min 0,0 UV-I 11,4 C 13,6 C 2,9 km/h (1 Bft)
10.07.2014 09:05 12,8 C 24,4 C 14,2 C 13,6 C 13,6 C 0,8 C 91 % 94 % 21 % 1004,8 hPa 0,0 l/m 2,9 km/h (1 Bft) SW 225 0 min 0,0 UV-I 11,4 C 13,6 C 0,0 km/h (0 Bft)
10.07.2014 09:10 12,8 C 24,4 C 14,2 C 13,6 C 13,6 C 0,8 C 91 % 94 % 21 % 1004,8 hPa 0,0 l/m 1,3 km/h (1 Bft) N 360 0 min 0,0 UV-I 11,4 C 13,6 C 1,6 km/h (1 Bft)
10.07.2014 09:15 12,9 C 24,4 C 14,3 C 13,6 C 13,6 C 0,7 C 91 % 94 % 18 % 1004,9 hPa 0,0 l/m 1,1 km/h (1 Bft) SO 135 0 min 0,0 UV-I 11,5 C 13,6 C 4,3 km/h (1 Bft)
10.07.2014 09:20 12,8 C 24,4 C 14,2 C 13,7 C 13,7 C 0,9 C 91 % 94 % 24 % 1004,9 hPa 0,0 l/m 1,3 km/h (1 Bft) SO 135 0 min 0,0 UV-I 11,4 C 13,7 C 0,0 km/h (0 Bft)
10.07.2014 09:25 12,8 C 24,4 C 14,2 C 13,8 C 13,8 C 1,0 C 91 % 94 % 26 % 1004,9 hPa 0,0 l/m 1,0 km/h (0 Bft) NO 45 0 min 0,0 UV-I 11,4 C 13,8 C 2,6 km/h (1 Bft)
10.07.2014 09:30 12,8 C 24,4 C 14,3 C 13,8 C 13,8 C 1,0 C 91 % 94 % 26 % 1004,9 hPa 0,0 l/m 0,5 km/h (0 Bft) SW 225 0 min 0,0 UV-I 11,4 C 13,8 C 0,0 km/h (0 Bft)
10.07.2014 09:35 12,9 C 24,4 C 14,3 C 13,8 C 13,8 C 0,9 C 91 % 94 % 24 % 1005,1 hPa 0,0 l/m 0,5 km/h (0 Bft) S 180 0 min 0,0 UV-I 11,5 C 13,8 C 1,9 km/h (1 Bft)
10.07.2014 09:40 12,9 C 24,3 C 14,3 C 13,8 C 13,8 C 0,9 C 91 % 94 % 24 % 1005,1 hPa 0,0 l/m 1,8 km/h (1 Bft) S-SO 157 0 min 0,0 UV-I 11,5 C 13,8 C 6,0 km/h (2 Bft)
10.07.2014 09:45 12,8 C 24,3 C 14,2 C 13,8 C 13,8 C 1,0 C 91 % 94 % 26 % 1005,1 hPa 0,0 l/m 2,6 km/h (1 Bft) SW 225 0 min 0,0 UV-I 11,4 C 13,8 C 2,6 km/h (1 Bft)
10.07.2014 09:50 12,8 C 24,3 C 14,3 C 13,8 C 13,8 C 1,0 C 91 % 94 % 26 % 1005,1 hPa 0,0 l/m 3,4 km/h (1 Bft) W 270 0 min 0,0 UV-I 11,4 C 13,8 C 3,2 km/h (1 Bft)
10.07.2014 09:55 12,8 C 24,3 C 14,2 C 13,8 C 13,8 C 1,0 C 91 % 94 % 26 % 1004,9 hPa 0,0 l/m 3,2 km/h (1 Bft) NW 315 0 min 0,0 UV-I 11,4 C 13,8 C 2,4 km/h (1 Bft)
10.07.2014 10:00 12,8 C 24,3 C 14,3 C 13,8 C 13,8 C 1,0 C 91 % 94 % 26 % 1004,9 hPa 0,0 l/m 2,9 km/h (1 Bft) SW 225 0 min 0,0 UV-I 11,4 C 13,8 C 4,2 km/h (1 Bft)
10.07.2014 10:05 12,8 C 24,3 C 14,3 C 13,8 C 13,8 C 1,0 C 91 % 94 % 26 % 1004,9 hPa 0,0 l/m 2,6 km/h (1 Bft) S 180 0 min 0,0 UV-I 11,4 C 13,8 C 2,9 km/h (1 Bft)
10.07.2014 10:10 12,9 C 24,3 C 14,2 C 13,8 C 13,8 C 0,9 C 91 % 94 % 24 % 1004,9 hPa 0,0 l/m 2,6 km/h (1 Bft) N-NW 337 0 min 0,0 UV-I 11,5 C 13,8 C 6,4 km/h (2 Bft)
10.07.2014 10:15 12,9 C 24,3 C 14,2 C 13,8 C 13,8 C 0,9 C 91 % 94 % 24 % 1004,9 hPa 0,0 l/m 2,9 km/h (1 Bft) SW 225 0 min 0,0 UV-I 11,5 C 13,8 C 4,3 km/h (1 Bft)
10.07.2014 10:20 12,9 C 24,2 C 14,2 C 13,8 C 13,8 C 0,9 C 91 % 94 % 24 % 1004,9 hPa 0,0 l/m 3,4 km/h (1 Bft) S 180 0 min 0,0 UV-I 11,5 C 13,8 C 2,3 km/h (1 Bft)
10.07.2014 10:25 12,9 C 24,3 C 14,3 C 13,9 C 13,9 C 1,0 C 91 % 94 % 26 % 1004,9 hPa 0,0 l/m 3,1 km/h (1 Bft) W-SW 247 0 min 0,0 UV-I 11,5 C 13,9 C 4,8 km/h (1 Bft)
10.07.2014 10:30 13,0 C 24,3 C 14,3 C 14,0 C 14,0 C 1,0 C 91 % 94 % 26 % 1004,9 hPa 0,0 l/m 1,8 km/h (1 Bft) W 270 0 min 0,0 UV-I 11,6 C 14,0 C 1,6 km/h (1 Bft)
10.07.2014 10:35 13,1 C 24,3 C 14,3 C 14,0 C 14,0 C 0,9 C 91 % 94 % 24 % 1005,5 hPa 0,0 l/m 2,1 km/h (1 Bft) S 180 0 min 0,0 UV-I 11,7 C 14,0 C 2,3 km/h (1 Bft)
10.07.2014 10:40 13,1 C 24,2 C 14,5 C 14,0 C 14,0 C 0,9 C 91 % 94 % 24 % 1005,5 hPa 0,0 l/m 1,9 km/h (1 Bft) SW 225 0 min 0,0 UV-I 11,7 C 14,0 C 2,3 km/h (1 Bft)
10.07.2014 10:45 13,0 C 24,2 C 14,5 C 14,1 C 14,1 C 1,1 C 91 % 94 % 29 % 1005,5 hPa 0,0 l/m 2,4 km/h (1 Bft) S-SO 157 0 min 0,0 UV-I 11,6 C 14,1 C 1,9 km/h (1 Bft)
10.07.2014 10:50 13,0 C 24,2 C 14,5 C 14,0 C 14,0 C 1,0 C 91 % 94 % 26 % 1005,5 hPa 0,0 l/m 2,4 km/h (1 Bft) S 180 0 min 0,0 UV-I 11,6 C 14,0 C 2,9 km/h (1 Bft)
10.07.2014 10:55 13,0 C 24,2 C 14,4 C 14,1 C 14,1 C 1,1 C 91 % 94 % 29 % 1005,2 hPa 0,0 l/m 2,4 km/h (1 Bft) NW 315 0 min 0,0 UV-I 11,6 C 14,1 C 3,1 km/h (1 Bft)
10.07.2014 11:00 13,1 C 24,2 C 14,5 C 14,2 C 14,2 C 1,1 C 91 % 94 % 29 % 1005,2 hPa 0,0 l/m 2,3 km/h (1 Bft) SW 225 0 min 0,0 UV-I 11,7 C 14,2 C 2,6 km/h (1 Bft)
10.07.2014 11:05 13,1 C 24,2 C 14,5 C 14,3 C 14,3 C 1,2 C 91 % 94 % 32 % 1005,2 hPa 0,0 l/m 2,6 km/h (1 Bft) S-SO 157 0 min 0,0 UV-I 11,7 C 14,3 C 4,3 km/h (1 Bft)
10.07.2014 11:10 13,3 C 24,2 C 14,5 C 14,4 C 14,4 C 1,1 C 91 % 94 % 29 % 1005,2 hPa 0,0 l/m 2,4 km/h (1 Bft) S-SO 157 0 min 0,0 UV-I 11,9 C 14,4 C 2,9 km/h (1 Bft)
10.07.2014 11:15 13,3 C 24,2 C 14,6 C 14,4 C 14,4 C 1,1 C 91 % 95 % 29 % 1005,2 hPa 0,0 l/m 2,1 km/h (1 Bft) W-SW 247 0 min 0,0 UV-I 11,9 C 14,4 C 3,9 km/h (1 Bft)
10.07.2014 11:20 13,3 C 24,2 C 14,7 C 14,5 C 14,5 C 1,2 C 91 % 95 % 32 % 1005,2 hPa 0,0 l/m 1,8 km/h (1 Bft) W-NW 292 0 min 0,0 UV-I 11,9 C 14,5 C 0,0 km/h (0 Bft)
10.07.2014 11:25 13,3 C 24,2 C 14,7 C 14,6 C 14,6 C 1,3 C 91 % 95 % 34 % 1005,2 hPa 0,0 l/m 1,4 km/h (1 Bft) SO 135 0 min 0,0 UV-I 11,9 C 14,6 C 0,0 km/h (0 Bft)
10.07.2014 11:30 13,5 C 24,2 C 14,7 C 14,7 C 14,7 C 1,2 C 91 % 95 % 32 % 1005,2 hPa 0,0 l/m 1,4 km/h (1 Bft) S 180 0 min 0,0 UV-I 12,1 C 14,7 C 6,4 km/h (2 Bft)
10.07.2014 11:35 13,5 C 24,2 C 14,7 C 14,8 C 14,8 C 1,3 C 91 % 95 % 34 % 1005,4 hPa 0,0 l/m 1,4 km/h (1 Bft) SO 135 0 min 0,0 UV-I 12,1 C 14,8 C 0,0 km/h (0 Bft)
10.07.2014 11:40 13,5 C 24,2 C 14,6 C 14,8 C 14,8 C 1,3 C 91 % 95 % 34 % 1005,4 hPa 0,0 l/m 1,3 km/h (1 Bft) S 180 0 min 0,0 UV-I 12,1 C 14,8 C 1,9 km/h (1 Bft)
10.07.2014 11:45 13,5 C 24,2 C 14,7 C 14,9 C 14,9 C 1,4 C 91 % 95 % 37 % 1005,4 hPa 0,0 l/m 1,4 km/h (1 Bft) W-SW 247 0 min 0,0 UV-I 12,1 C 14,9 C 2,3 km/h (1 Bft)
10.07.2014 11:50 13,7 C 24,2 C 14,8 C 15,0 C 15,0 C 1,3 C 91 % 95 % 34 % 1005,4 hPa 0,0 l/m 1,1 km/h (1 Bft) SW 225 0 min 0,0 UV-I 12,3 C 15,0 C 0,0 km/h (0 Bft)
10.07.2014 11:55 13,7 C 24,2 C 14,8 C 15,0 C 15,0 C 1,3 C 91 % 95 % 34 % 1005,4 hPa 0,0 l/m 0,8 km/h (0 Bft) SW 225 0 min 0,0 UV-I 12,3 C 15,0 C 0,0 km/h (0 Bft)
10.07.2014 12:00 13,6 C 24,2 C 14,8 C 14,9 C 14,9 C 1,3 C 91 % 95 % 34 % 1005,4 hPa 0,0 l/m 0,5 km/h (0 Bft) W-SW 247 0 min 0,0 UV-I 12,2 C 14,9 C 0,0 km/h (0 Bft)
10.07.2014 12:05 13,6 C 24,2 C 14,8 C 14,9 C 14,9 C 1,3 C 91 % 95 % 34 % 1005,4 hPa 0,0 l/m 1,1 km/h (1 Bft) NW 315 0 min 0,0 UV-I 12,2 C 14,9 C 3,1 km/h (1 Bft)
10.07.2014 12:10 13,7 C 24,2 C 14,9 C 15,0 C 15,0 C 1,3 C 91 % 95 % 34 % 1005,4 hPa 0,0 l/m 1,3 km/h (1 Bft) S 180 0 min 0,0 UV-I 12,3 C 15,0 C 1,6 km/h (1 Bft)
10.07.2014 12:15 13,7 C 24,2 C 14,9 C 15,1 C 15,1 C 1,4 C 91 % 95 % 37 % 1005,2 hPa 0,0 l/m 1,4 km/h (1 Bft) S 180 0 min 0,0 UV-I 12,3 C 15,1 C 3,5 km/h (1 Bft)
10.07.2014 12:20 13,9 C 24,2 C 14,9 C 15,3 C 15,3 C 1,4 C 91 % 95 % 37 % 1005,2 hPa 0,0 l/m 1,4 km/h (1 Bft) SO 135 0 min 0,0 UV-I 12,5 C 15,3 C 2,1 km/h (1 Bft)
10.07.2014 12:25 13,8 C 24,2 C 14,9 C 15,5 C 15,5 C 1,7 C 91 % 95 % 45 % 1005,2 hPa 0,0 l/m 0,5 km/h (0 Bft) S 180 0 min 0,0 UV-I 12,4 C 15,5 C 0,0 km/h (0 Bft)
10.07.2014 12:30 13,9 C 24,2 C 15,0 C 15,6 C 15,6 C 1,7 C 91 % 95 % 45 % 1005,2 hPa 0,0 l/m 0,3 km/h (0 Bft) S-SO 157 0 min 0,0 UV-I 12,5 C 15,6 C 0,0 km/h (0 Bft)
10.07.2014 12:35 13,9 C 24,2 C 15,0 C 15,6 C 15,6 C 1,7 C 91 % 95 % 45 % 1005,3 hPa 0,0 l/m 0,2 km/h (0 Bft) N-NO 22 0 min 0,0 UV-I 12,5 C 15,6 C 0,0 km/h (0 Bft)
10.07.2014 12:40 14,0 C 24,2 C 15,1 C 15,8 C 15,8 C 1,8 C 91 % 95 % 47 % 1005,3 hPa 0,0 l/m 0,6 km/h (0 Bft) S 180 0 min 0,0 UV-I 12,6 C 15,8 C 2,9 km/h (1 Bft)
10.07.2014 12:45 14,0 C 24,2 C 15,2 C 16,0 C 16,0 C 2,0 C 91 % 95 % 53 % 1005,3 hPa 0,0 l/m 1,4 km/h (1 Bft) W-SW 247 0 min 0,0 UV-I 12,6 C 16,0 C 3,4 km/h (1 Bft)
10.07.2014 12:50 14,1 C 24,2 C 15,3 C 16,4 C 16,4 C 2,3 C 91 % 95 % 61 % 1005,3 hPa 0,0 l/m 1,3 km/h (1 Bft) SW 225 0 min 0,0 UV-I 12,7 C 16,4 C 3,9 km/h (1 Bft)
10.07.2014 12:55 14,3 C 24,1 C 15,4 C 16,4 C 16,4 C 2,1 C 91 % 95 % 55 % 1005,2 hPa 0,0 l/m 1,4 km/h (1 Bft) SW 225 0 min 0,0 UV-I 12,8 C 16,4 C 3,5 km/h (1 Bft)
10.07.2014 13:00 14,4 C 24,1 C 15,5 C 16,9 C 16,9 C 2,5 C 91 % 95 % 66 % 1005,2 hPa 0,0 l/m 1,1 km/h (1 Bft) N 360 0 min 0,0 UV-I 12,9 C 16,9 C 0,0 km/h (0 Bft)
10.07.2014 13:05 14,5 C 24,1 C 15,7 C 17,4 C 17,4 C 2,9 C 91 % 95 % 76 % 1005,2 hPa 0,0 l/m 0,6 km/h (0 Bft) W-SW 247 0 min 0,0 UV-I 13,0 C 17,4 C 0,0 km/h (0 Bft)
10.07.2014 13:10 14,6 C 24,1 C 15,6 C 17,8 C 17,8 C 3,2 C 91 % 95 % 84 % 1005,2 hPa 0,0 l/m 0,8 km/h (0 Bft) W-SW 247 0 min 0,0 UV-I 13,1 C 17,8 C 1,9 km/h (1 Bft)
10.07.2014 13:15 14,7 C 24,1 C 15,9 C 17,9 C 17,9 C 3,2 C 91 % 95 % 84 % 1005,4 hPa 0,0 l/m 0,8 km/h (0 Bft) SO 135 0 min 0,0 UV-I 13,2 C 17,9 C 0,0 km/h (0 Bft)
10.07.2014 13:20 15,1 C 24,0 C 16,0 C 18,4 C 18,4 C 3,3 C 91 % 95 % 87 % 1005,4 hPa 0,0 l/m 0,5 km/h (0 Bft) W 270 5 min 0,0 UV-I 13,6 C 18,4 C 6,6 km/h (2 Bft)
10.07.2014 13:25 15,1 C 24,0 C 16,2 C 18,6 C 18,6 C 3,5 C 91 % 95 % 92 % 1005,4 hPa 0,0 l/m 0,8 km/h (0 Bft) S 180 5 min 0,0 UV-I 13,6 C 18,6 C 0,0 km/h (0 Bft)
10.07.2014 13:30 15,5 C 24,0 C 16,5 C 19,5 C 19,5 C 4,0 C 91 % 95 % 100 % 1005,4 hPa 0,0 l/m 1,3 km/h (1 Bft) S 180 5 min 0,0 UV-I 14,0 C 19,5 C 5,6 km/h (1 Bft)
10.07.2014 13:35 15,6 C 24,0 C 16,6 C 19,5 C 19,5 C 3,9 C 91 % 94 % 100 % 1005,4 hPa 0,0 l/m 1,1 km/h (1 Bft) S-SW 202 5 min 0,0 UV-I 14,1 C 19,5 C 3,7 km/h (1 Bft)
10.07.2014 13:40 16,0 C 23,9 C 17,0 C 20,8 C 20,8 C 4,8 C 91 % 94 % 100 % 1005,4 hPa 0,0 l/m 1,9 km/h (1 Bft) W 270 5 min 0,0 UV-I 14,5 C 20,8 C 1,9 km/h (1 Bft)
10.07.2014 13:45 16,4 C 23,9 C 17,1 C 21,8 C 21,8 C 5,4 C 91 % 94 % 100 % 1005,4 hPa 0,0 l/m 1,4 km/h (1 Bft) O 90 5 min 0,0 UV-I 14,9 C 21,8 C 1,6 km/h (1 Bft)
10.07.2014 13:50 16,4 C 23,9 C 16,8 C 21,5 C 21,5 C 5,1 C 90 % 94 % 100 % 1005,4 hPa 0,0 l/m 1,0 km/h (0 Bft) S 180 5 min 0,0 UV-I 14,8 C 21,5 C 0,0 km/h (0 Bft)
10.07.2014 13:55 16,4 C 23,9 C 17,1 C 21,5 C 21,5 C 5,1 C 90 % 94 % 100 % 1005,4 hPa 0,0 l/m 0,8 km/h (0 Bft) S 180 5 min 0,0 UV-I 14,8 C 21,5 C 0,0 km/h (0 Bft)
10.07.2014 14:00 16,7 C 23,9 C 17,2 C 21,8 C 21,8 C 5,1 C 89 % 95 % 100 % 1005,4 hPa 0,0 l/m 0,5 km/h (0 Bft) S 180 5 min 0,0 UV-I 14,9 C 21,8 C 0,0 km/h (0 Bft)
10.07.2014 14:05 16,8 C 23,9 C 17,1 C 21,5 C 21,5 C 4,7 C 89 % 94 % 100 % 1005,4 hPa 0,0 l/m 0,3 km/h (0 Bft) O-SO 112 5 min 0,0 UV-I 15,0 C 21,5 C 0,0 km/h (0 Bft)
10.07.2014 14:10 16,8 C 24,0 C 16,9 C 20,5 C 20,5 C 3,7 C 87 % 94 % 97 % 1005,4 hPa 0,0 l/m 0,2 km/h (0 Bft) O 90 5 min 0,0 UV-I 14,6 C 20,5 C 0,0 km/h (0 Bft)
10.07.2014 14:15 16,8 C 24,0 C 16,9 C 20,3 C 20,3 C 3,5 C 87 % 94 % 92 % 1005,1 hPa 0,0 l/m 0,2 km/h (0 Bft) O-NO 67 5 min 0,0 UV-I 14,6 C 20,3 C 0,0 km/h (0 Bft)
10.07.2014 14:20 16,8 C 23,9 C 17,0 C 20,2 C 20,2 C 3,4 C 87 % 94 % 89 % 1005,1 hPa 0,0 l/m 0,2 km/h (0 Bft) S 180 5 min 0,0 UV-I 14,6 C 20,2 C 0,0 km/h (0 Bft)
10.07.2014 14:25 16,9 C 23,9 C 17,2 C 20,6 C 20,6 C 3,7 C 87 % 95 % 97 % 1005,1 hPa 0,0 l/m 0,0 km/h (0 Bft) S-SW 202 5 min 0,0 UV-I 14,7 C 20,6 C 0,0 km/h (0 Bft)
10.07.2014 14:30 16,9 C 23,9 C 17,1 C 20,5 C 20,5 C 3,6 C 87 % 94 % 95 % 1005,1 hPa 0,0 l/m 0,3 km/h (0 Bft) SW 225 5 min 0,0 UV-I 14,7 C 20,5 C 0,0 km/h (0 Bft)
10.07.2014 14:35 16,9 C 23,9 C 17,1 C 20,5 C 20,5 C 3,6 C 86 % 94 % 95 % 1005,2 hPa 0,0 l/m 0,3 km/h (0 Bft) S 180 5 min 0,0 UV-I 14,5 C 20,5 C 0,0 km/h (0 Bft)
10.07.2014 14:40 17,1 C 23,9 C 16,9 C 20,3 C 20,3 C 3,2 C 86 % 94 % 84 % 1005,2 hPa 0,0 l/m 0,0 km/h (0 Bft) W-NW 292 0 min 0,0 UV-I 14,7 C 20,3 C 0,0 km/h (0 Bft)
10.07.2014 14:45 17,1 C 23,9 C 17,0 C 20,2 C 20,2 C 3,1 C 86 % 94 % 82 % 1005,2 hPa 0,0 l/m 0,2 km/h (0 Bft) S-SO 157 0 min 0,0 UV-I 14,7 C 20,2 C 0,0 km/h (0 Bft)
10.07.2014 14:50 17,1 C 23,9 C 17,0 C 20,0 C 20,0 C 2,9 C 86 % 94 % 76 % 1005,2 hPa 0,0 l/m 0,6 km/h (0 Bft) S-SW 202 0 min 0,0 UV-I 14,7 C 20,0 C 2,1 km/h (1 Bft)
10.07.2014 14:55 17,1 C 23,9 C 17,3 C 20,2 C 20,2 C 3,1 C 86 % 94 % 82 % 1005,0 hPa 0,0 l/m 0,8 km/h (0 Bft) S-SW 202 0 min 0,0 UV-I 14,7 C 20,2 C 2,3 km/h (1 Bft)
10.07.2014 15:00 17,7 C 23,8 C 17,9 C 22,4 C 22,4 C 4,7 C 86 % 94 % 100 % 1005,0 hPa 0,0 l/m 1,6 km/h (1 Bft) SO 135 5 min 0,0 UV-I 15,3 C 22,4 C 0,0 km/h (0 Bft)
10.07.2014 15:05 18,1 C 23,8 C 17,9 C 23,9 C 23,9 C 5,8 C 86 % 94 % 100 % 1005,0 hPa 0,0 l/m 1,6 km/h (1 Bft) S 180 5 min 0,0 UV-I 15,7 C 23,9 C 8,0 km/h (2 Bft)
10.07.2014 15:10 18,7 C 23,8 C 18,0 C 24,5 C 24,5 C 5,8 C 84 % 94 % 100 % 1005,0 hPa 0,0 l/m 1,6 km/h (1 Bft) W 270 5 min 0,0 UV-I 15,9 C 24,5 C 2,7 km/h (1 Bft)
10.07.2014 15:15 18,9 C 23,8 C 18,0 C 24,2 C 24,2 C 5,3 C 84 % 94 % 100 % 1005,0 hPa 0,0 l/m 1,8 km/h (1 Bft) W 270 5 min 0,0 UV-I 16,1 C 24,2 C 3,9 km/h (1 Bft)
10.07.2014 15:20 19,0 C 23,9 C 17,8 C 22,5 C 22,5 C 3,5 C 83 % 94 % 92 % 1005,0 hPa 0,0 l/m 0,5 km/h (0 Bft) S 180 5 min 0,0 UV-I 16,0 C 22,5 C 0,0 km/h (0 Bft)
10.07.2014 15:25 19,1 C 23,9 C 17,8 C 21,9 C 21,9 C 2,8 C 83 % 94 % 74 % 1005,0 hPa 0,0 l/m 0,5 km/h (0 Bft) W-SW 247 0 min 0,0 UV-I 16,1 C 21,9 C 2,3 km/h (1 Bft)
10.07.2014 15:30 19,1 C 23,9 C 17,9 C 21,1 C 21,1 C 2,0 C 83 % 94 % 53 % 1005,0 hPa 0,0 l/m 0,5 km/h (0 Bft) W-SW 247 0 min 0,0 UV-I 16,1 C 21,1 C 0,0 km/h (0 Bft)
10.07.2014 15:35 19,1 C 23,9 C 17,9 C 21,0 C 21,0 C 1,9 C 83 % 94 % 50 % 1005,4 hPa 0,0 l/m 0,6 km/h (0 Bft) NO 45 0 min 0,0 UV-I 16,1 C 21,0 C 0,0 km/h (0 Bft)
10.07.2014 15:40 19,0 C 23,9 C 17,9 C 20,7 C 20,7 C 1,7 C 82 % 94 % 45 % 1005,4 hPa 0,0 l/m 0,3 km/h (0 Bft) O-NO 67 0 min 0,0 UV-I 15,9 C 20,7 C 0,0 km/h (0 Bft)
10.07.2014 15:45 18,9 C 23,9 C 17,9 C 20,6 C 20,6 C 1,7 C 82 % 94 % 45 % 1005,4 hPa 0,0 l/m 0,5 km/h (0 Bft) W-SW 247 0 min 0,0 UV-I 15,8 C 20,6 C 5,5 km/h (1 Bft)
10.07.2014 15:50 18,9 C 23,9 C 17,8 C 20,1 C 20,1 C 1,2 C 82 % 94 % 32 % 1005,4 hPa 0,0 l/m 1,3 km/h (1 Bft) W-SW 247 0 min 0,0 UV-I 15,8 C 20,1 C 4,2 km/h (1 Bft)
10.07.2014 15:55 18,8 C 23,9 C 17,8 C 19,9 C 19,9 C 1,1 C 82 % 94 % 29 % 1005,4 hPa 0,0 l/m 1,4 km/h (1 Bft) W-SW 247 0 min 0,0 UV-I 15,7 C 19,9 C 0,0 km/h (0 Bft)
10.07.2014 16:00 18,7 C 23,9 C 17,8 C 19,8 C 19,8 C 1,1 C 82 % 94 % 29 % 1005,4 hPa 0,0 l/m 0,5 km/h (0 Bft) SW 225 0 min 0,0 UV-I 15,6 C 19,8 C 0,0 km/h (0 Bft)
10.07.2014 16:05 18,6 C 23,9 C 17,7 C 19,9 C 19,9 C 1,3 C 83 % 94 % 34 % 1005,4 hPa 0,0 l/m 0,0 km/h (0 Bft) S-SW 202 0 min 0,0 UV-I 15,7 C 19,9 C 0,0 km/h (0 Bft)
10.07.2014 16:10 18,7 C 23,9 C 17,9 C 20,2 C 20,2 C 1,5 C 83 % 94 % 39 % 1005,4 hPa 0,0 l/m 0,2 km/h (0 Bft) S 180 0 min 0,0 UV-I 15,8 C 20,2 C 1,6 km/h (1 Bft)
10.07.2014 16:15 18,7 C 23,9 C 17,9 C 20,3 C 20,3 C 1,6 C 83 % 94 % 42 % 1005,6 hPa 0,0 l/m 0,0 km/h (0 Bft) S-SW 202 0 min 0,0 UV-I 15,8 C 20,3 C 0,0 km/h (0 Bft)
10.07.2014 16:20 18,7 C 23,8 C 18,0 C 20,7 C 20,7 C 2,0 C 83 % 94 % 53 % 1005,6 hPa 0,0 l/m 0,5 km/h (0 Bft) S-SW 202 0 min 0,0 UV-I 15,8 C 20,7 C 0,0 km/h (0 Bft)
10.07.2014 16:25 18,9 C 23,8 C 18,0 C 21,1 C 21,1 C 2,2 C 84 % 93 % 58 % 1005,6 hPa 0,0 l/m 0,5 km/h (0 Bft) SW 225 0 min 0,0 UV-I 16,1 C 21,1 C 0,0 km/h (0 Bft)
10.07.2014 16:30 19,1 C 23,8 C 18,1 C 21,9 C 21,9 C 2,8 C 83 % 93 % 74 % 1005,6 hPa 0,0 l/m 0,3 km/h (0 Bft) W-NW 292 0 min 0,0 UV-I 16,1 C 21,9 C 0,0 km/h (0 Bft)
10.07.2014 16:35 19,2 C 23,8 C 18,3 C 22,1 C 22,1 C 2,9 C 83 % 93 % 76 % 1005,8 hPa 0,0 l/m 0,6 km/h (0 Bft) W 270 0 min 0,0 UV-I 16,2 C 22,1 C 3,9 km/h (1 Bft)
10.07.2014 16:40 19,5 C 23,9 C 18,5 C 22,7 C 22,7 C 3,2 C 82 % 93 % 84 % 1005,8 hPa 0,0 l/m 1,3 km/h (1 Bft) W-SW 247 0 min 0,0 UV-I 16,3 C 22,7 C 3,5 km/h (1 Bft)
10.07.2014 16:45 19,6 C 23,9 C 18,7 C 23,3 C 23,3 C 3,7 C 82 % 93 % 97 % 1005,8 hPa 0,0 l/m 0,8 km/h (0 Bft) O-NO 67 5 min 0,0 UV-I 16,4 C 23,3 C 3,7 km/h (1 Bft)
10.07.2014 16:50 19,9 C 23,8 C 19,3 C 24,8 C 24,8 C 4,9 C 82 % 94 % 100 % 1005,8 hPa 0,0 l/m 0,6 km/h (0 Bft) NO 45 5 min 0,0 UV-I 16,7 C 24,8 C 0,0 km/h (0 Bft)
10.07.2014 16:55 20,0 C 23,8 C 19,3 C 25,3 C 25,3 C 5,3 C 82 % 93 % 100 % 1005,7 hPa 0,0 l/m 0,6 km/h (0 Bft) S-SO 157 5 min 0,0 UV-I 16,8 C 25,3 C 0,0 km/h (0 Bft)
10.07.2014 17:00 20,4 C 23,8 C 19,5 C 25,8 C 25,8 C 5,4 C 80 % 93 % 100 % 1005,7 hPa 0,0 l/m 1,0 km/h (0 Bft) S 180 5 min 0,0 UV-I 16,8 C 25,8 C 2,7 km/h (1 Bft)
10.07.2014 17:05 20,4 C 23,9 C 19,5 C 25,8 C 25,8 C 5,4 C 80 % 93 % 100 % 1005,7 hPa 0,0 l/m 1,1 km/h (1 Bft) N-NO 22 5 min 0,0 UV-I 16,8 C 25,8 C 1,8 km/h (1 Bft)
10.07.2014 17:10 20,5 C 23,9 C 19,3 C 25,5 C 25,5 C 5,0 C 79 % 93 % 100 % 1005,7 hPa 0,0 l/m 1,1 km/h (1 Bft) W-NW 292 5 min 0,0 UV-I 16,7 C 25,5 C 3,4 km/h (1 Bft)
10.07.2014 17:15 20,5 C 23,9 C 19,4 C 25,3 C 25,3 C 4,8 C 79 % 93 % 100 % 1005,8 hPa 0,0 l/m 1,1 km/h (1 Bft) SW 225 5 min 0,0 UV-I 16,7 C 25,3 C 3,4 km/h (1 Bft)
10.07.2014 17:20 20,3 C 23,9 C 19,5 C 24,4 C 24,4 C 4,1 C 80 % 93 % 100 % 1005,8 hPa 0,0 l/m 2,1 km/h (1 Bft) W-SW 247 5 min 0,0 UV-I 16,7 C 24,4 C 0,0 km/h (0 Bft)
10.07.2014 17:25 20,3 C 23,9 C 19,7 C 24,1 C 24,1 C 3,8 C 80 % 92 % 100 % 1005,8 hPa 0,0 l/m 2,3 km/h (1 Bft) N-NO 22 5 min 0,0 UV-I 16,7 C 24,1 C 2,4 km/h (1 Bft)
10.07.2014 17:30 20,1 C 23,9 C 19,7 C 23,5 C 23,5 C 3,4 C 81 % 92 % 89 % 1005,8 hPa 0,0 l/m 2,3 km/h (1 Bft) NO 45 5 min 0,0 UV-I 16,7 C 23,5 C 0,0 km/h (0 Bft)
10.07.2014 17:35 20,1 C 23,9 C 19,6 C 23,2 C 23,2 C 3,1 C 81 % 92 % 82 % 1005,9 hPa 0,0 l/m 2,1 km/h (1 Bft) O-NO 67 0 min 0,0 UV-I 16,7 C 23,2 C 0,0 km/h (0 Bft)
10.07.2014 17:40 20,0 C 23,9 C 19,5 C 22,4 C 22,4 C 2,4 C 81 % 92 % 63 % 1005,9 hPa 0,0 l/m 1,0 km/h (0 Bft) O 90 0 min 0,0 UV-I 16,6 C 22,4 C 1,9 km/h (1 Bft)
10.07.2014 17:45 19,9 C 23,9 C 19,4 C 21,9 C 21,9 C 2,0 C 81 % 92 % 53 % 1005,9 hPa 0,0 l/m 1,8 km/h (1 Bft) O-NO 67 0 min 0,0 UV-I 16,5 C 21,9 C 2,6 km/h (1 Bft)
10.07.2014 17:50 19,6 C 23,9 C 19,3 C 21,2 C 21,2 C 1,6 C 79 % 92 % 42 % 1005,9 hPa 0,0 l/m 3,7 km/h (1 Bft) O 90 0 min 0,0 UV-I 15,9 C 21,2 C 5,0 km/h (1 Bft)
10.07.2014 17:55 19,6 C 23,9 C 19,4 C 21,3 C 21,3 C 1,7 C 79 % 91 % 45 % 1005,9 hPa 0,0 l/m 3,9 km/h (1 Bft) W 270 0 min 0,0 UV-I 15,9 C 21,3 C 4,8 km/h (1 Bft)
10.07.2014 18:00 19,8 C 23,9 C 19,4 C 22,7 C 22,7 C 2,9 C 77 % 91 % 76 % 1005,9 hPa 0,0 l/m 4,3 km/h (1 Bft) O-NO 67 0 min 0,0 UV-I 15,6 C 22,7 C 8,4 km/h (2 Bft)
10.07.2014 18:05 19,9 C 23,9 C 19,1 C 22,6 C 22,6 C 2,7 C 76 % 88 % 71 % 1005,9 hPa 0,0 l/m 6,6 km/h (2 Bft) O-SO 112 0 min 0,0 UV-I 15,5 C 22,6 C 11,9 km/h (2 Bft)
10.07.2014 18:10 19,9 C 23,9 C 19,0 C 21,9 C 21,9 C 2,0 C 76 % 88 % 53 % 1005,9 hPa 0,0 l/m 7,2 km/h (2 Bft) O-NO 67 0 min 0,0 UV-I 15,5 C 21,9 C 13,4 km/h (3 Bft)
10.07.2014 18:15 19,8 C 23,9 C 18,8 C 21,6 C 21,6 C 1,8 C 76 % 88 % 47 % 1006,2 hPa 0,0 l/m 6,3 km/h (2 Bft) O-SO 112 0 min 0,0 UV-I 15,4 C 21,6 C 4,8 km/h (1 Bft)
10.07.2014 18:20 19,6 C 23,9 C 18,9 C 20,9 C 20,9 C 1,3 C 77 % 89 % 34 % 1006,2 hPa 0,0 l/m 3,9 km/h (1 Bft) O-NO 67 0 min 0,0 UV-I 15,5 C 20,9 C 5,3 km/h (1 Bft)
10.07.2014 18:25 19,6 C 23,9 C 18,9 C 20,9 C 20,9 C 1,3 C 77 % 88 % 34 % 1006,2 hPa 0,0 l/m 4,2 km/h (1 Bft) O-NO 67 0 min 0,0 UV-I 15,5 C 20,9 C 6,4 km/h (2 Bft)
10.07.2014 18:30 19,7 C 24,0 C 18,9 C 21,1 C 21,1 C 1,4 C 79 % 89 % 37 % 1006,2 hPa 0,0 l/m 4,7 km/h (1 Bft) NO 45 0 min 0,0 UV-I 16,0 C 21,1 C 8,2 km/h (2 Bft)
10.07.2014 18:35 19,6 C 24,0 C 18,8 C 21,0 C 21,0 C 1,4 C 78 % 89 % 37 % 1006,2 hPa 0,0 l/m 5,1 km/h (1 Bft) O-NO 67 0 min 0,0 UV-I 15,7 C 21,0 C 7,9 km/h (2 Bft)
10.07.2014 18:40 19,3 C 24,0 C 18,7 C 20,8 C 20,8 C 1,5 C 79 % 89 % 39 % 1006,2 hPa 0,0 l/m 6,3 km/h (2 Bft) O-SO 112 0 min 0,0 UV-I 15,6 C 20,8 C 6,4 km/h (2 Bft)
10.07.2014 18:45 19,3 C 24,0 C 18,7 C 21,1 C 21,1 C 1,8 C 79 % 89 % 47 % 1006,2 hPa 0,0 l/m 5,1 km/h (1 Bft) O-NO 67 0 min 0,0 UV-I 15,6 C 21,1 C 6,1 km/h (2 Bft)
10.07.2014 18:50 19,4 C 24,0 C 18,9 C 21,6 C 21,6 C 2,2 C 79 % 89 % 58 % 1006,2 hPa 0,0 l/m 4,7 km/h (1 Bft) O 90 0 min 0,0 UV-I 15,7 C 21,6 C 5,5 km/h (1 Bft)
10.07.2014 18:55 19,5 C 24,0 C 19,1 C 21,7 C 21,7 C 2,2 C 79 % 90 % 58 % 1006,5 hPa 0,0 l/m 4,7 km/h (1 Bft) O-NO 67 0 min 0,0 UV-I 15,8 C 21,7 C 5,3 km/h (1 Bft)
10.07.2014 19:00 19,3 C 24,0 C 18,9 C 21,8 C 21,8 C 2,5 C 79 % 90 % 66 % 1006,5 hPa 0,0 l/m 5,1 km/h (1 Bft) O-NO 67 0 min 0,0 UV-I 15,6 C 21,8 C 6,3 km/h (2 Bft)
10.07.2014 19:05 19,1 C 24,0 C 18,6 C 20,9 C 20,9 C 1,8 C 78 % 89 % 47 % 1006,5 hPa 0,0 l/m 5,6 km/h (1 Bft) O-NO 67 0 min 0,0 UV-I 15,2 C 20,9 C 4,0 km/h (1 Bft)
10.07.2014 19:10 18,7 C 24,0 C 18,3 C 19,7 C 19,7 C 1,0 C 79 % 90 % 26 % 1006,5 hPa 0,0 l/m 5,0 km/h (1 Bft) NO 45 0 min 0,0 UV-I 15,0 C 19,7 C 2,7 km/h (1 Bft)
10.07.2014 19:15 18,7 C 24,0 C 18,3 C 19,8 C 19,8 C 1,1 C 80 % 90 % 29 % 1006,7 hPa 0,0 l/m 4,5 km/h (1 Bft) O-NO 67 0 min 0,0 UV-I 15,2 C 19,8 C 2,4 km/h (1 Bft)
10.07.2014 19:20 18,7 C 24,0 C 18,3 C 20,8 C 20,8 C 2,1 C 80 % 90 % 55 % 1006,7 hPa 0,0 l/m 3,7 km/h (1 Bft) NO 45 0 min 0,0 UV-I 15,2 C 20,8 C 2,6 km/h (1 Bft)
10.07.2014 19:25 18,7 C 24,0 C 18,3 C 21,1 C 21,1 C 2,4 C 80 % 90 % 63 % 1006,7 hPa 0,0 l/m 4,0 km/h (1 Bft) O 90 0 min 0,0 UV-I 15,2 C 21,1 C 2,4 km/h (1 Bft)
10.07.2014 19:30 18,7 C 24,0 C 18,3 C 21,4 C 21,4 C 2,7 C 80 % 90 % 71 % 1006,7 hPa 0,0 l/m 3,2 km/h (1 Bft) NO 45 5 min 0,0 UV-I 15,2 C 21,4 C 3,7 km/h (1 Bft)
10.07.2014 19:35 18,7 C 24,0 C 18,1 C 21,3 C 21,3 C 2,6 C 79 % 90 % 68 % 1006,8 hPa 0,0 l/m 3,5 km/h (1 Bft) O 90 5 min 0,0 UV-I 15,0 C 21,3 C 3,7 km/h (1 Bft)
10.07.2014 19:40 18,5 C 24,0 C 17,9 C 20,5 C 20,5 C 2,0 C 77 % 90 % 53 % 1006,8 hPa 0,0 l/m 4,2 km/h (1 Bft) NO 45 0 min 0,0 UV-I 14,4 C 20,5 C 6,4 km/h (2 Bft)
10.07.2014 19:45 18,5 C 24,0 C 17,7 C 19,7 C 19,7 C 1,2 C 78 % 90 % 32 % 1006,8 hPa 0,0 l/m 4,7 km/h (1 Bft) O-NO 67 0 min 0,0 UV-I 14,6 C 19,7 C 7,6 km/h (2 Bft)
10.07.2014 19:50 18,3 C 24,0 C 17,6 C 18,8 C 18,8 C 0,5 C 78 % 90 % 13 % 1006,8 hPa 0,0 l/m 3,5 km/h (1 Bft) NO 45 0 min 0,0 UV-I 14,4 C 18,8 C 2,4 km/h (1 Bft)
10.07.2014 19:55 18,3 C 24,0 C 17,5 C 18,6 C 18,6 C 0,3 C 78 % 90 % 8 % 1006,9 hPa 0,0 l/m 3,4 km/h (1 Bft) O-NO 67 0 min 0,0 UV-I 14,4 C 18,6 C 2,4 km/h (1 Bft)
10.07.2014 20:00 18,1 C 24,0 C 17,6 C 19,7 C 19,7 C 1,6 C 79 % 90 % 42 % 1006,9 hPa 0,0 l/m 2,3 km/h (1 Bft) O-NO 67 0 min 0,0 UV-I 14,4 C 19,7 C 2,7 km/h (1 Bft)
10.07.2014 20:05 18,1 C 24,0 C 17,7 C 20,5 C 20,5 C 2,4 C 79 % 90 % 63 % 1006,9 hPa 0,0 l/m 2,4 km/h (1 Bft) O-NO 67 5 min 0,0 UV-I 14,4 C 20,5 C 4,2 km/h (1 Bft)
10.07.2014 20:10 18,0 C 24,0 C 17,3 C 20,4 C 20,4 C 2,4 C 79 % 89 % 63 % 1006,9 hPa 0,0 l/m 4,2 km/h (1 Bft) O 90 5 min 0,0 UV-I 14,3 C 20,4 C 5,3 km/h (1 Bft)
10.07.2014 20:15 18,1 C 24,0 C 17,2 C 19,9 C 19,9 C 1,8 C 79 % 89 % 47 % 1006,9 hPa 0,0 l/m 4,5 km/h (1 Bft) O-NO 67 5 min 0,0 UV-I 14,4 C 19,9 C 3,9 km/h (1 Bft)
10.07.2014 20:20 17,8 C 24,0 C 17,1 C 18,6 C 18,6 C 0,8 C 79 % 90 % 21 % 1006,9 hPa 0,0 l/m 4,7 km/h (1 Bft) O-NO 67 0 min 0,0 UV-I 14,1 C 18,6 C 4,8 km/h (1 Bft)
10.07.2014 20:25 17,7 C 24,0 C 17,1 C 18,2 C 18,2 C 0,5 C 79 % 90 % 13 % 1006,9 hPa 0,0 l/m 4,7 km/h (1 Bft) O-NO 67 0 min 0,0 UV-I 14,0 C 18,2 C 5,0 km/h (1 Bft)
10.07.2014 20:30 17,6 C 24,0 C 17,0 C 18,0 C 18,0 C 0,4 C 79 % 90 % 11 % 1006,9 hPa 0,0 l/m 4,2 km/h (1 Bft) O-NO 67 0 min 0,0 UV-I 13,9 C 18,0 C 7,9 km/h (2 Bft)
10.07.2014 20:35 17,6 C 24,0 C 17,1 C 17,9 C 17,9 C 0,3 C 79 % 90 % 8 % 1007,2 hPa 0,0 l/m 4,0 km/h (1 Bft) O 90 0 min 0,0 UV-I 13,9 C 17,9 C 4,8 km/h (1 Bft)
10.07.2014 20:40 17,7 C 24,0 C 17,2 C 17,8 C 17,8 C 0,1 C 79 % 91 % 3 % 1007,2 hPa 0,0 l/m 4,0 km/h (1 Bft) O-NO 67 0 min 0,0 UV-I 14,0 C 17,8 C 3,1 km/h (1 Bft)
10.07.2014 20:45 17,6 C 24,0 C 17,2 C 17,8 C 17,8 C 0,2 C 79 % 91 % 5 % 1007,2 hPa 0,0 l/m 4,0 km/h (1 Bft) O 90 0 min 0,0 UV-I 13,9 C 17,8 C 4,0 km/h (1 Bft)
10.07.2014 20:50 17,5 C 24,0 C 17,1 C 17,6 C 17,6 C 0,1 C 80 % 91 % 3 % 1007,2 hPa 0,0 l/m 3,4 km/h (1 Bft) O-NO 67 0 min 0,0 UV-I 14,0 C 17,6 C 4,0 km/h (1 Bft)
10.07.2014 20:55 17,5 C 24,0 C 17,0 C 17,5 C 17,5 C 0,0 C 80 % 90 % 0 % 1007,3 hPa 0,0 l/m 3,2 km/h (1 Bft) NO 45 0 min 0,0 UV-I 14,0 C 17,5 C 4,3 km/h (1 Bft)
10.07.2014 21:00 17,3 C 24,0 C 16,9 C 17,3 C 17,2 C 0,0 C 80 % 90 % 0 % 1007,3 hPa 0,0 l/m 2,7 km/h (1 Bft) O-NO 67 0 min 0,0 UV-I 13,8 C 17,2 C 5,3 km/h (1 Bft)
10.07.2014 21:05 17,2 C 24,0 C 16,8 C 17,2 C 17,1 C 0,0 C 80 % 90 % 0 % 1007,3 hPa 0,0 l/m 2,6 km/h (1 Bft) O-NO 67 0 min 0,0 UV-I 13,7 C 17,1 C 3,9 km/h (1 Bft)
10.07.2014 21:10 17,2 C 24,0 C 16,6 C 17,1 C 16,9 C 0,0 C 80 % 90 % 0 % 1007,3 hPa 0,0 l/m 3,1 km/h (1 Bft) O-NO 67 0 min 0,0 UV-I 13,7 C 16,9 C 5,1 km/h (1 Bft)
10.07.2014 21:15 17,2 C 24,0 C 16,5 C 17,1 C 16,9 C 0,0 C 80 % 90 % 0 % 1007,8 hPa 0,0 l/m 3,2 km/h (1 Bft) O-NO 67 0 min 0,0 UV-I 13,7 C 16,9 C 3,7 km/h (1 Bft)
10.07.2014 21:20 16,9 C 24,0 C 16,4 C 16,8 C 16,5 C 0,0 C 80 % 90 % 0 % 1007,8 hPa 0,0 l/m 3,5 km/h (1 Bft) O-NO 67 0 min 0,0 UV-I 13,4 C 16,5 C 3,2 km/h (1 Bft)
10.07.2014 21:25 16,8 C 24,0 C 16,3 C 16,7 C 16,4 C 0,0 C 80 % 90 % 0 % 1007,8 hPa 0,0 l/m 3,1 km/h (1 Bft) O-NO 67 0 min 0,0 UV-I 13,3 C 16,4 C 2,6 km/h (1 Bft)
10.07.2014 21:30 16,6 C 24,0 C 16,1 C 16,4 C 16,0 C 0,0 C 80 % 90 % 0 % 1007,8 hPa 0,0 l/m 2,9 km/h (1 Bft) O-NO 67 0 min 0,0 UV-I 13,1 C 16,0 C 3,2 km/h (1 Bft)
10.07.2014 21:35 16,7 C 24,0 C 16,0 C 16,4 C 15,8 C 0,0 C 80 % 90 % 0 % 1008,1 hPa 0,0 l/m 2,7 km/h (1 Bft) NO 45 0 min 0,0 UV-I 13,2 C 15,8 C 0,0 km/h (0 Bft)
10.07.2014 21:40 16,4 C 24,0 C 15,9 C 16,1 C 15,5 C 0,0 C 81 % 90 % 0 % 1008,1 hPa 0,0 l/m 1,3 km/h (1 Bft) O-NO 67 0 min 0,0 UV-I 13,1 C 15,5 C 0,0 km/h (0 Bft)
10.07.2014 21:45 16,2 C 24,0 C 15,8 C 15,9 C 15,2 C 0,0 C 81 % 90 % 0 % 1008,1 hPa 0,0 l/m 0,2 km/h (0 Bft) W-NW 292 0 min 0,0 UV-I 12,9 C 15,2 C 0,0 km/h (0 Bft)
10.07.2014 21:50 16,1 C 24,0 C 15,6 C 15,7 C 15,0 C 0,0 C 81 % 90 % 0 % 1008,1 hPa 0,0 l/m 0,0 km/h (0 Bft) N-NW 337 0 min 0,0 UV-I 12,8 C 15,0 C 0,0 km/h (0 Bft)
10.07.2014 21:55 16,1 C 24,0 C 15,6 C 15,7 C 14,9 C 0,0 C 81 % 90 % 0 % 1008,2 hPa 0,0 l/m 0,0 km/h (0 Bft) N-NO 22 0 min 0,0 UV-I 12,8 C 14,9 C 0,0 km/h (0 Bft)
10.07.2014 22:00 15,8 C 24,0 C 15,5 C 15,4 C 14,7 C 0,0 C 82 % 90 % 0 % 1008,2 hPa 0,0 l/m 0,0 km/h (0 Bft) O-NO 67 0 min 0,0 UV-I 12,7 C 14,7 C 0,0 km/h (0 Bft)
10.07.2014 22:05 15,7 C 24,0 C 15,5 C 15,3 C 14,6 C 0,0 C 82 % 90 % 0 % 1008,2 hPa 0,0 l/m 0,2 km/h (0 Bft) O-SO 112 0 min 0,0 UV-I 12,6 C 14,6 C 0,0 km/h (0 Bft)
10.07.2014 22:10 15,3 C 24,0 C 15,2 C 15,0 C 14,4 C 0,0 C 82 % 90 % 0 % 1008,2 hPa 0,0 l/m 0,2 km/h (0 Bft) O-NO 67 0 min 0,0 UV-I 12,2 C 14,4 C 0,0 km/h (0 Bft)
10.07.2014 22:15 15,3 C 24,0 C 15,2 C 14,9 C 14,2 C 0,0 C 83 % 90 % 0 % 1008,4 hPa 0,0 l/m 0,0 km/h (0 Bft) O 90 0 min 0,0 UV-I 12,4 C 14,2 C 0,0 km/h (0 Bft)
10.07.2014 22:20 15,1 C 24,0 C 15,1 C 14,7 C 14,0 C 0,0 C 83 % 90 % 0 % 1008,4 hPa 0,0 l/m 0,0 km/h (0 Bft) N-NO 22 0 min 0,0 UV-I 12,2 C 14,0 C 0,0 km/h (0 Bft)
10.07.2014 22:25 14,8 C 24,0 C 14,8 C 14,5 C 13,8 C 0,0 C 84 % 90 % 0 % 1008,4 hPa 0,0 l/m 0,0 km/h (0 Bft) N-NO 22 0 min 0,0 UV-I 12,1 C 13,8 C 0,0 km/h (0 Bft)
10.07.2014 22:30 14,6 C 24,0 C 14,8 C 14,3 C 13,6 C 0,0 C 83 % 90 % 0 % 1008,4 hPa 0,0 l/m 0,0 km/h (0 Bft) O-NO 67 0 min 0,0 UV-I 11,7 C 13,6 C 0,0 km/h (0 Bft)
10.07.2014 22:35 14,7 C 24,0 C 14,7 C 14,3 C 13,5 C 0,0 C 83 % 91 % 0 % 1008,4 hPa 0,0 l/m 0,0 km/h (0 Bft) O-NO 67 0 min 0,0 UV-I 11,8 C 13,5 C 0,0 km/h (0 Bft)
10.07.2014 22:40 14,3 C 24,0 C 14,7 C 14,0 C 13,5 C 0,0 C 84 % 91 % 0 % 1008,4 hPa 0,0 l/m 0,0 km/h (0 Bft) O-NO 67 0 min 0,0 UV-I 11,6 C 13,5 C 0,0 km/h (0 Bft)
10.07.2014 22:45 14,2 C 24,0 C 14,6 C 14,0 C 13,5 C 0,0 C 84 % 91 % 0 % 1008,4 hPa 0,0 l/m 0,0 km/h (0 Bft) O-NO 67 0 min 0,0 UV-I 11,5 C 13,5 C 0,0 km/h (0 Bft)
10.07.2014 22:50 14,0 C 24,0 C 14,6 C 13,8 C 13,4 C 0,0 C 85 % 91 % 0 % 1008,4 hPa 0,0 l/m 0,0 km/h (0 Bft) O 90 0 min 0,0 UV-I 11,5 C 13,4 C 0,0 km/h (0 Bft)
10.07.2014 22:55 14,0 C 24,0 C 14,7 C 13,8 C 13,4 C 0,0 C 85 % 91 % 0 % 1008,7 hPa 0,0 l/m 0,3 km/h (0 Bft) O-NO 67 0 min 0,0 UV-I 11,5 C 13,4 C 2,1 km/h (1 Bft)
10.07.2014 23:00 13,7 C 24,0 C 14,6 C 13,6 C 13,5 C 0,0 C 85 % 91 % 0 % 1008,7 hPa 0,0 l/m 0,6 km/h (0 Bft) O 90 0 min 0,0 UV-I 11,2 C 13,5 C 1,9 km/h (1 Bft)
10.07.2014 23:05 13,6 C 24,0 C 14,6 C 13,6 C 13,6 C 0,0 C 86 % 91 % 0 % 1008,7 hPa 0,0 l/m 1,1 km/h (1 Bft) O-NO 67 0 min 0,0 UV-I 11,3 C 13,6 C 1,8 km/h (1 Bft)
10.07.2014 23:10 13,5 C 24,0 C 14,5 C 13,5 C 13,5 C 0,0 C 86 % 91 % 0 % 1008,7 hPa 0,0 l/m 0,6 km/h (0 Bft) O-NO 67 0 min 0,0 UV-I 11,2 C 13,5 C 0,0 km/h (0 Bft)
10.07.2014 23:15 13,5 C 24,0 C 14,4 C 13,5 C 13,4 C 0,0 C 86 % 91 % 0 % 1008,5 hPa 0,0 l/m 0,0 km/h (0 Bft) N-NW 337 0 min 0,0 UV-I 11,2 C 13,4 C 0,0 km/h (0 Bft)
10.07.2014 23:20 13,3 C 24,0 C 14,4 C 13,3 C 13,3 C 0,0 C 86 % 92 % 0 % 1008,5 hPa 0,0 l/m 0,0 km/h (0 Bft) O-SO 112 0 min 0,0 UV-I 11,0 C 13,3 C 0,0 km/h (0 Bft)
10.07.2014 23:25 13,3 C 24,0 C 14,4 C 13,3 C 13,2 C 0,0 C 86 % 92 % 0 % 1008,5 hPa 0,0 l/m 0,0 km/h (0 Bft) NO 45 0 min 0,0 UV-I 11,0 C 13,2 C 0,0 km/h (0 Bft)
10.07.2014 23:30 13,2 C 24,0 C 14,3 C 13,1 C 13,0 C 0,0 C 86 % 92 % 0 % 1008,5 hPa 0,0 l/m 0,0 km/h (0 Bft) N-NO 22 0 min 0,0 UV-I 10,9 C 13,0 C 0,0 km/h (0 Bft)
10.07.2014 23:35 13,1 C 24,0 C 14,1 C 13,1 C 13,0 C 0,0 C 87 % 92 % 0 % 1008,8 hPa 0,0 l/m 0,0 km/h (0 Bft) O-NO 67 0 min 0,0 UV-I 11,0 C 13,0 C 0,0 km/h (0 Bft)
10.07.2014 23:40 13,0 C 24,0 C 14,1 C 12,9 C 12,8 C 0,0 C 87 % 92 % 0 % 1008,8 hPa 0,0 l/m 0,0 km/h (0 Bft) N-NW 337 0 min 0,0 UV-I 10,9 C 12,8 C 0,0 km/h (0 Bft)
10.07.2014 23:45 12,9 C 24,0 C 14,1 C 12,9 C 12,8 C 0,0 C 87 % 92 % 0 % 1008,8 hPa 0,0 l/m 0,0 km/h (0 Bft) N-NW 337 0 min 0,0 UV-I 10,8 C 12,8 C 0,0 km/h (0 Bft)
10.07.2014 23:50 12,8 C 24,0 C 14,1 C 12,9 C 12,9 C 0,1 C 87 % 92 % 0 % 1008,8 hPa 0,0 l/m 0,0 km/h (0 Bft) O-NO 67 0 min 0,0 UV-I 10,7 C 12,9 C 0,0 km/h (0 Bft)
10.07.2014 23:55 12,8 C 24,0 C 14,3 C 13,0 C 13,0 C 0,2 C 87 % 92 % 0 % 1008,7 hPa 0,0 l/m 0,0 km/h (0 Bft) NW 315 0 min 0,0 UV-I 10,7 C 13,0 C 0,0 km/h (0 Bft)
_ Min-Zeit 06:35 15:00 05:25 23:40 23:40 00:00 18:05 00:00 00:00 03:35 - 00:40 - - - 00:00 05:10 23:40 00:10
Minimum _ 12,4 C 23,8 C 13,6 C 12,9 C 12,8 C 0,0 C 76 % 88 % 0 % 1004,1 hPa - 0,0 km/h (0 Bft) - - - 0,0 UV-I 10,5 C 12,8 C 0,0 km/h (0 Bft)
_ Max-Zeit 17:10 04:50 17:25 17:00 17:00 15:05 08:50 11:15 13:30 23:35 06:10 18:10 - - 05:20 00:00 16:55 17:00 18:10
Maximum _ 20,5 C 24,6 C 19,7 C 25,8 C 25,8 C 5,8 C 91 % 95 % 100 % 1008,8 hPa 1,4 l/m 7,2 km/h
O-NO (2 Bft)
- - 5 min 0,0 UV-I 16,8 C 25,8 C 13,4 km/h
O-NO (3 Bft)
Durchschnitt _ 15,2 C 24,2 C 15,6 C 16,4 C 16,3 C 1,2 C 86 % 92 % 29 % 1005,7 hPa #5,5 l/m 1,4 km/h (1 Bft) O-NO - #3:10 h 0,0 UV-I 12,7 C 16,3 C 2,0 km/h (1 Bft)
2014 www.wetterstation-wechselburg.de